createdAt,value
2023-02-09T00:02:41.524Z,9.30
2023-02-09T00:05:43.970Z,8.85
2023-02-09T00:08:45.699Z,8.97
2023-02-09T00:12:11.690Z,8.30
2023-02-09T00:15:14.782Z,8.52
2023-02-09T00:18:16.173Z,8.82
2023-02-09T00:21:18.617Z,9.80
2023-02-09T00:24:19.913Z,9.33
2023-02-09T00:27:22.412Z,8.53
2023-02-09T00:30:25.521Z,8.40
2023-02-09T00:33:27.154Z,9.02
2023-02-09T00:36:29.875Z,8.65
2023-02-09T00:39:31.258Z,9.03
2023-02-09T00:42:33.700Z,8.50
2023-02-09T00:45:36.911Z,9.63
2023-02-09T00:48:38.234Z,8.80
2023-02-09T00:51:40.616Z,9.30
2023-02-09T00:54:41.929Z,8.80
2023-02-09T00:57:44.383Z,9.73
2023-02-09T01:00:47.662Z,8.30
2023-02-09T01:03:49.122Z,8.57
2023-02-09T01:06:51.543Z,8.90
2023-02-09T01:09:52.817Z,8.17
2023-02-09T01:12:55.250Z,9.03
2023-02-09T01:15:58.325Z,8.82
2023-02-09T01:19:01.001Z,9.43
2023-02-09T01:22:04.106Z,8.85
2023-02-09T01:25:07.090Z,9.50
2023-02-09T01:28:09.525Z,9.13
2023-02-09T01:31:21.342Z,9.30
2023-02-09T01:34:24.018Z,9.23
2023-02-09T01:37:25.336Z,8.75
2023-02-09T01:40:27.771Z,9.20
2023-02-09T01:43:30.192Z,7.87
2023-02-09T01:46:33.763Z,9.85
2023-02-09T01:49:36.261Z,8.43
2023-02-09T01:52:39.302Z,7.78
2023-02-09T01:55:46.533Z,8.30
2023-02-09T01:58:49.209Z,8.37
2023-02-09T02:01:52.524Z,8.57
2023-02-09T02:04:55.041Z,9.10
2023-02-09T02:08:04.089Z,8.77
2023-02-09T02:11:05.804Z,9.33
2023-02-09T02:14:08.222Z,8.90
2023-02-09T02:17:20.173Z,8.45
2023-02-09T02:21:03.328Z,8.75
2023-02-09T02:24:24.437Z,8.60
2023-02-09T02:27:32.288Z,8.17
2023-02-09T02:30:52.721Z,8.53
2023-02-09T02:34:02.906Z,8.30
2023-02-09T02:37:16.775Z,8.80
2023-02-09T02:40:29.627Z,7.70
2023-02-09T02:43:42.437Z,8.13
2023-02-09T02:46:47.515Z,8.27
2023-02-09T02:49:54.390Z,8.48
2023-02-09T02:53:00.363Z,10.05
2023-02-09T02:56:07.088Z,8.07
2023-02-09T02:59:15.001Z,8.53
2023-02-09T03:02:19.781Z,9.03
2023-02-09T03:05:24.663Z,7.40
2023-02-09T03:11:51.473Z,8.07
2023-02-09T03:15:13.694Z,8.27
2023-02-09T03:18:27.327Z,7.73
2023-02-09T03:21:39.721Z,8.23
2023-02-09T03:24:47.219Z,8.55
2023-02-09T03:27:54.947Z,8.43
2023-02-09T03:30:59.574Z,9.13
2023-02-09T03:34:02.920Z,8.30
2023-02-09T03:37:04.865Z,8.77
2023-02-09T03:43:43.499Z,8.80
2023-02-09T03:46:44.787Z,8.77
2023-02-09T03:49:46.149Z,8.10
2023-02-09T03:52:48.071Z,7.97
2023-02-09T03:55:50.630Z,7.90
2023-02-09T03:58:52.209Z,7.95
2023-02-09T04:01:56.156Z,8.30
2023-02-09T04:04:58.648Z,8.50
2023-02-09T04:08:00.705Z,8.50
2023-02-09T04:11:03.285Z,8.75
2023-02-09T04:14:05.494Z,7.60
2023-02-09T04:17:08.084Z,8.60
2023-02-09T04:20:10.088Z,8.30
2023-02-09T04:23:13.318Z,8.05
2023-02-09T04:26:16.377Z,8.25
2023-02-09T04:29:17.664Z,8.50
2023-02-09T04:35:39.922Z,9.20
2023-02-09T04:38:43.213Z,8.02
2023-02-09T04:41:45.800Z,9.02
2023-02-09T04:44:47.090Z,7.82
2023-02-09T04:47:49.611Z,8.47
2023-02-09T04:50:53.028Z,8.23
2023-02-09T04:53:54.916Z,7.88
2023-02-09T04:57:12.018Z,9.20
2023-02-09T05:00:14.103Z,7.82
2023-02-09T05:03:16.971Z,8.10
2023-02-09T05:06:18.684Z,7.87
2023-02-09T05:09:21.934Z,8.48
2023-02-09T05:12:24.463Z,7.90
2023-02-09T05:15:25.800Z,8.02
2023-02-09T05:18:28.360Z,9.40
2023-02-09T05:21:29.628Z,7.23
2023-02-09T05:24:32.873Z,7.30
2023-02-09T05:27:35.391Z,8.13
2023-02-09T05:30:37.002Z,8.20
2023-02-09T05:33:39.556Z,8.07
2023-02-09T05:36:40.836Z,8.00
2023-02-09T05:39:43.986Z,8.20
2023-02-09T05:42:46.578Z,8.40
2023-02-09T05:45:47.901Z,8.40
2023-02-09T05:48:50.537Z,8.03
2023-02-09T05:51:51.803Z,8.33
2023-02-09T05:58:15.002Z,7.35
2023-02-09T06:01:17.549Z,7.60
2023-02-09T06:07:39.736Z,8.53
2023-02-09T06:10:42.895Z,8.23
2023-02-09T06:13:45.469Z,8.63
2023-02-09T06:16:46.905Z,8.40
2023-02-09T06:19:49.402Z,7.63
2023-02-09T06:22:50.753Z,7.90
2023-02-09T06:25:53.932Z,8.00
2023-02-09T06:28:56.433Z,7.65
2023-02-09T06:31:57.849Z,8.18
2023-02-09T06:35:00.523Z,8.63
2023-02-09T06:38:02.314Z,8.77
2023-02-09T06:41:06.164Z,8.18
2023-02-09T06:44:07.458Z,7.95
2023-02-09T06:47:10.030Z,8.45
2023-02-09T06:50:14.377Z,7.53
2023-02-09T06:53:16.419Z,8.60
2023-02-09T06:56:20.619Z,8.02
2023-02-09T06:59:23.389Z,9.23
2023-02-09T07:02:24.647Z,8.05
2023-02-09T07:05:27.927Z,7.97
2023-02-09T07:08:29.232Z,8.37
2023-02-09T07:11:32.490Z,7.97
2023-02-09T07:14:35.169Z,8.15
2023-02-09T07:17:36.437Z,8.60
2023-02-09T07:20:38.978Z,7.67
2023-02-09T07:23:40.259Z,8.43
2023-02-09T07:26:43.587Z,8.10
2023-02-09T07:29:44.972Z,9.18
2023-02-09T07:32:46.241Z,7.57
2023-02-09T07:35:49.566Z,8.57
2023-02-09T07:38:51.082Z,8.73
2023-02-09T07:41:54.542Z,8.45
2023-02-09T07:44:55.827Z,8.00
2023-02-09T07:47:58.398Z,8.00
2023-02-09T07:51:01.667Z,9.17
2023-02-09T07:54:07.083Z,7.80
2023-02-09T07:57:13.249Z,8.00
2023-02-09T08:00:17.755Z,8.95
2023-02-09T08:03:21.902Z,8.82
2023-02-09T08:06:41.018Z,8.10
2023-02-09T08:09:45.780Z,9.23
2023-02-09T08:13:00.915Z,8.48
2023-02-09T08:16:06.723Z,8.30
2023-02-09T08:19:13.418Z,8.18
2023-02-09T08:22:16.146Z,8.47
2023-02-09T08:25:20.552Z,8.30
2023-02-09T08:28:34.840Z,7.60
2023-02-09T08:31:44.615Z,8.15
2023-02-09T08:34:46.024Z,8.18
2023-02-09T08:37:48.584Z,8.33
2023-02-09T08:40:49.908Z,8.23
2023-02-09T08:43:53.085Z,7.80
2023-02-09T08:46:55.727Z,7.45
2023-02-09T08:49:59.381Z,8.52
2023-02-09T08:53:03.353Z,7.53
2023-02-09T08:56:05.344Z,8.17
2023-02-09T08:59:08.574Z,8.32
2023-02-09T09:02:11.139Z,6.95
2023-02-09T09:05:12.565Z,8.48
2023-02-09T09:08:15.050Z,7.70
2023-02-09T09:11:16.598Z,8.13
2023-02-09T09:14:19.787Z,7.95
2023-02-09T09:17:21.320Z,8.05
2023-02-09T09:20:23.916Z,7.93
2023-02-09T09:23:25.202Z,7.23
2023-02-09T09:26:27.730Z,8.27
2023-02-09T09:29:29.632Z,7.40
2023-02-09T09:32:32.277Z,7.30
2023-02-09T09:35:33.622Z,7.63
2023-02-09T09:38:37.758Z,7.90
2023-02-09T09:41:39.011Z,8.23
2023-02-09T09:44:47.322Z,7.50
2023-02-09T09:47:49.165Z,7.55
2023-02-09T09:50:55.975Z,7.22
2023-02-09T09:53:59.061Z,7.17
2023-02-09T09:57:02.081Z,7.20
2023-02-09T10:00:15.268Z,6.97
2023-02-09T10:03:18.948Z,6.93
2023-02-09T10:06:23.536Z,7.82
2023-02-09T10:09:34.503Z,6.87
2023-02-09T10:12:38.140Z,6.77
2023-02-09T10:15:41.924Z,6.88
2023-02-09T10:18:43.721Z,7.90
2023-02-09T10:21:46.213Z,6.60
2023-02-09T10:24:48.751Z,7.10
2023-02-09T10:27:50.010Z,6.73
2023-02-09T10:30:55.854Z,6.70
2023-02-09T10:34:02.174Z,6.43
2023-02-09T10:37:20.354Z,6.82
2023-02-09T10:40:28.416Z,6.10
2023-02-09T10:43:31.845Z,6.40
2023-02-09T10:46:35.361Z,6.40
2023-02-09T10:49:39.128Z,6.40
2023-02-09T10:52:54.260Z,7.15
2023-02-09T10:56:03.318Z,6.47
2023-02-09T10:59:15.910Z,6.20
2023-02-09T11:02:33.841Z,5.80
2023-02-09T11:05:35.229Z,6.60
2023-02-09T11:08:44.659Z,6.18
2023-02-09T11:11:46.436Z,6.87
2023-02-09T11:14:49.449Z,5.70
2023-02-09T11:17:55.784Z,6.38
2023-02-09T11:21:06.570Z,6.13
2023-02-09T11:24:17.311Z,5.93
2023-02-09T11:27:32.029Z,6.40
2023-02-09T11:30:55.250Z,5.67
2023-02-09T11:34:08.433Z,6.35
2023-02-09T11:40:51.833Z,5.88
2023-02-09T11:43:55.000Z,6.10
2023-02-09T11:47:04.992Z,6.07
2023-02-09T11:50:10.440Z,6.18
2023-02-09T11:53:20.958Z,5.82
2023-02-09T11:56:25.300Z,5.78
2023-02-09T11:59:31.665Z,6.73
2023-02-09T12:02:46.603Z,6.20
2023-02-09T12:05:50.391Z,6.10
2023-02-09T12:09:00.408Z,5.97
2023-02-09T12:12:11.675Z,5.45
2023-02-09T12:15:16.000Z,6.10
2023-02-09T12:18:21.874Z,5.40
2023-02-09T12:21:29.370Z,5.38
2023-02-09T12:24:34.567Z,5.38
2023-02-09T12:27:38.275Z,5.85
2023-02-09T12:31:02.561Z,5.87
2023-02-09T12:34:23.813Z,6.10
2023-02-09T12:37:29.378Z,6.13
2023-02-09T12:40:37.729Z,5.53
2023-02-09T12:43:41.456Z,5.80
2023-02-09T12:46:52.103Z,6.47
2023-02-09T12:50:04.541Z,6.03
2023-02-09T12:53:33.799Z,5.75
2023-02-09T12:56:37.111Z,5.70
2023-02-09T12:59:38.377Z,5.80
2023-02-09T13:02:42.746Z,4.60
2023-02-09T13:05:46.922Z,5.93
2023-02-09T13:08:53.733Z,5.13
2023-02-09T13:12:05.037Z,5.47
2023-02-09T13:15:14.230Z,5.57
2023-02-09T13:18:20.009Z,5.53
2023-02-09T13:21:34.841Z,5.53
2023-02-09T13:24:43.746Z,5.30
2023-02-09T13:27:49.031Z,5.13
2023-02-09T13:30:50.484Z,5.30
2023-02-09T13:33:59.566Z,6.03
2023-02-09T13:37:13.475Z,5.78
2023-02-09T13:40:22.739Z,5.78
2023-02-09T13:43:28.679Z,5.13
2023-02-09T13:46:35.584Z,5.33
2023-02-09T13:49:37.064Z,5.30
2023-02-09T13:52:40.552Z,5.60
2023-02-09T13:59:06.555Z,5.40
2023-02-09T14:02:25.046Z,6.03
2023-02-09T14:05:36.825Z,5.85
2023-02-09T14:08:41.475Z,5.90
2023-02-09T14:11:50.716Z,5.53
2023-02-09T14:15:14.887Z,5.80
2023-02-09T14:18:33.358Z,5.73
2023-02-09T14:21:44.553Z,5.38
2023-02-09T14:24:47.098Z,4.85
2023-02-09T14:27:50.393Z,5.18
2023-02-09T14:30:51.798Z,5.40
2023-02-09T14:33:56.493Z,5.03
2023-02-09T14:37:00.030Z,5.05
2023-02-09T14:40:20.133Z,5.25
2023-02-09T14:43:25.848Z,4.70
2023-02-09T14:46:27.204Z,5.28
2023-02-09T14:49:30.124Z,6.00
2023-02-09T14:52:32.457Z,5.50
2023-02-09T14:55:40.700Z,7.25
2023-02-09T14:58:42.764Z,6.05
2023-02-09T15:01:45.839Z,6.85
2023-02-09T15:04:47.207Z,5.70
2023-02-09T15:07:53.984Z,5.63
2023-02-09T15:14:24.842Z,5.93
2023-02-09T15:17:29.057Z,6.05
2023-02-09T15:20:32.035Z,5.83
2023-02-09T15:23:33.334Z,5.40
2023-02-09T15:26:37.586Z,6.10
2023-02-09T15:29:39.576Z,11.50
2023-02-09T15:36:03.157Z,9.87
2023-02-09T15:39:11.968Z,8.25
2023-02-09T15:42:35.017Z,8.23
2023-02-09T15:45:55.269Z,10.07
2023-02-09T15:48:57.843Z,7.82
2023-02-09T15:52:00.702Z,9.93
2023-02-09T15:55:02.049Z,6.50
2023-02-09T15:58:05.355Z,6.80
2023-02-09T16:01:10.563Z,6.60
2023-02-09T16:04:14.648Z,7.85
2023-02-09T16:07:24.563Z,6.55
2023-02-09T16:10:28.372Z,6.63
2023-02-09T16:13:30.994Z,12.87
2023-02-09T16:16:33.043Z,7.60
2023-02-09T16:19:35.672Z,6.10
2023-02-09T16:22:39.650Z,6.50
2023-02-09T16:25:42.758Z,10.35
2023-02-09T16:28:45.390Z,8.10
2023-02-09T16:31:47.964Z,6.67
2023-02-09T16:34:51.488Z,7.25
2023-02-09T16:37:54.464Z,7.60
2023-02-09T16:40:57.356Z,7.15
2023-02-09T16:43:59.245Z,7.13
2023-02-09T16:47:02.718Z,6.50
2023-02-09T16:50:16.572Z,6.82
2023-02-09T16:53:24.602Z,6.53
2023-02-09T16:56:26.741Z,6.95
2023-02-09T16:59:29.464Z,6.43
2023-02-09T17:02:36.417Z,7.17
2023-02-09T17:09:00.228Z,6.85
2023-02-09T17:12:01.549Z,7.32
2023-02-09T17:15:04.225Z,8.13
2023-02-09T17:18:08.955Z,7.83
2023-02-09T17:21:17.425Z,7.53
2023-02-09T17:24:18.758Z,7.03
2023-02-09T17:27:21.285Z,6.85
2023-02-09T17:30:23.883Z,7.27
2023-02-09T17:33:28.163Z,7.00
2023-02-09T17:36:31.584Z,7.43
2023-02-09T17:39:33.172Z,6.57
2023-02-09T17:42:37.781Z,6.85
2023-02-09T17:45:40.440Z,7.23
2023-02-09T17:48:42.658Z,7.80
2023-02-09T17:55:17.488Z,6.57
2023-02-09T17:58:18.907Z,6.00
2023-02-09T18:01:26.597Z,7.53
2023-02-09T18:04:30.917Z,6.93
2023-02-09T18:07:33.631Z,7.22
2023-02-09T18:10:36.059Z,9.38
2023-02-09T18:13:38.628Z,8.73
2023-02-09T18:16:40.521Z,7.13
2023-02-09T18:19:43.728Z,7.23
2023-02-09T18:22:45.176Z,6.95
2023-02-09T18:25:50.093Z,10.13
2023-02-09T18:28:52.928Z,7.80
2023-02-09T18:31:55.739Z,6.47
2023-02-09T18:34:59.180Z,6.40
2023-02-09T18:38:01.534Z,6.82
2023-02-09T18:41:04.308Z,7.70
2023-02-09T18:44:07.005Z,6.75
2023-02-09T18:47:10.033Z,6.17
2023-02-09T18:50:17.120Z,6.75
2023-02-09T18:53:21.340Z,7.50
2023-02-09T18:56:26.262Z,7.22
2023-02-09T18:59:30.181Z,6.78
2023-02-09T19:02:31.576Z,6.53
2023-02-09T19:05:35.942Z,6.38
2023-02-09T19:08:38.604Z,11.10
2023-02-09T19:11:43.126Z,9.95
2023-02-09T19:14:46.912Z,7.55
2023-02-09T19:17:48.536Z,7.03
2023-02-09T19:20:56.004Z,7.00
2023-02-09T19:23:57.453Z,7.10
2023-02-09T19:30:24.206Z,9.15
2023-02-09T19:33:26.820Z,7.70
2023-02-09T19:36:30.043Z,7.68
2023-02-09T19:39:32.256Z,11.38
2023-02-09T19:42:35.084Z,8.48
2023-02-09T19:45:37.949Z,8.38
2023-02-09T19:48:39.610Z,10.10
2023-02-09T19:51:42.808Z,10.60
2023-02-09T19:54:44.553Z,9.35
2023-02-09T19:57:47.171Z,8.07
2023-02-09T20:00:50.663Z,7.43
2023-02-09T20:03:52.469Z,7.73
2023-02-09T20:06:55.810Z,6.18
2023-02-09T20:09:57.327Z,6.22
2023-02-09T20:12:59.932Z,6.15
2023-02-09T20:16:07.013Z,5.97
2023-02-09T20:19:08.380Z,6.67
2023-02-09T20:22:13.319Z,7.00
2023-02-09T20:25:14.737Z,6.80
2023-02-09T20:28:17.608Z,6.43
2023-02-09T20:31:20.880Z,6.13
2023-02-09T20:34:22.206Z,6.80
2023-02-09T20:37:25.513Z,6.28
2023-02-09T20:40:26.860Z,6.82
2023-02-09T20:43:48.079Z,6.38
2023-02-09T20:46:58.255Z,7.05
2023-02-09T20:50:01.273Z,7.17
2023-02-09T20:53:03.295Z,6.00
2023-02-09T20:56:06.556Z,7.78
2023-02-09T20:59:08.290Z,7.15
2023-02-09T21:02:12.438Z,7.00
2023-02-09T21:05:15.122Z,6.80
2023-02-09T21:08:17.105Z,7.07
2023-02-09T21:11:19.792Z,6.82
2023-02-09T21:14:27.645Z,7.18
2023-02-09T21:21:10.145Z,7.63
2023-02-09T21:24:13.570Z,7.72
2023-02-09T21:27:14.957Z,7.40
2023-02-09T21:33:38.940Z,7.20
2023-02-09T21:36:40.278Z,6.47
2023-02-09T21:39:43.608Z,7.25
2023-02-09T21:42:44.893Z,7.63
2023-02-09T21:45:47.553Z,7.30
2023-02-09T21:48:49.088Z,7.30
2023-02-09T21:51:51.745Z,7.40
2023-02-09T21:54:53.741Z,7.40
2023-02-09T21:57:56.400Z,6.95
2023-02-09T22:00:59.263Z,7.28
2023-02-09T22:04:02.787Z,8.13
2023-02-09T22:07:05.001Z,6.93
2023-02-09T22:10:09.200Z,6.68
2023-02-09T22:13:10.956Z,7.38
2023-02-09T22:16:19.335Z,6.82
2023-02-09T22:19:20.643Z,6.80
2023-02-09T22:22:23.207Z,7.00
2023-02-09T22:25:26.469Z,7.28
2023-02-09T22:28:28.225Z,7.30
2023-02-09T22:31:30.823Z,6.88
2023-02-09T22:34:32.135Z,8.15
2023-02-09T22:37:34.775Z,7.53
2023-02-09T22:40:36.745Z,6.72
2023-02-09T22:43:39.671Z,7.40
2023-02-09T22:46:44.515Z,7.70
2023-02-09T22:49:46.276Z,7.05
2023-02-09T22:56:11.509Z,6.85
2023-02-09T22:59:14.672Z,7.63
2023-02-09T23:02:17.258Z,7.95
2023-02-09T23:05:18.609Z,7.18
2023-02-09T23:08:23.061Z,7.43
2023-02-09T23:11:25.500Z,9.10
2023-02-09T23:14:28.218Z,8.88
2023-02-09T23:17:32.194Z,8.80
2023-02-09T23:20:33.524Z,8.40
2023-02-09T23:23:36.220Z,8.17
2023-02-09T23:26:38.754Z,8.02
2023-02-09T23:29:41.297Z,7.90
2023-02-09T23:32:43.853Z,8.68
2023-02-09T23:35:45.211Z,8.32
2023-02-09T23:38:48.262Z,8.67
2023-02-09T23:41:50.296Z,7.75
2023-02-09T23:44:52.944Z,7.88
2023-02-09T23:47:54.318Z,8.60
2023-02-09T23:50:59.701Z,8.63
2023-02-09T23:54:03.161Z,7.13
2023-02-09T23:57:06.386Z,7.47
